Time;durP1;ratioP1;P1;durP2;ratioP2;P2;SDS_P1;SDS_P2;PMS_P1;PMS_P2;Temp;Humidity;BMP_temperature;BMP_pressure;BME280_temperature;BME280_humidity;BME280_pressure;Samples;Min_cycle;Max_cycle;Signal;HPM_P1;HPM_P2
2021/11/18 00:01:51;;;;;;;436.47;416.10;;;5.40;99.90;;;;;;4406694;32;20171;-61
2021/11/18 00:04:18;;;;;;;438.73;418.47;;;5.40;99.90;;;;;;4404942;32;20164;-61
2021/11/18 00:06:48;;;;;;;444.77;424.43;;;5.40;99.90;;;;;;4407750;32;20170;-61
2021/11/18 00:09:16;;;;;;;444.17;423.40;;;5.30;99.90;;;;;;4408139;32;20147;-61
2021/11/18 00:11:43;;;;;;;434.87;414.93;;;5.30;99.90;;;;;;4408471;32;20243;-61
2021/11/18 00:14:11;;;;;;;445.80;425.23;;;5.30;99.90;;;;;;4408373;32;20167;-61
2021/11/18 00:16:41;;;;;;;450.97;429.93;;;5.20;99.90;;;;;;4410109;32;20173;-61
2021/11/18 00:19:08;;;;;;;430.50;410.97;;;5.20;99.90;;;;;;4409803;32;20163;-60
2021/11/18 00:21:37;;;;;;;454.83;434.03;;;5.30;99.90;;;;;;4408629;32;20167;-61
2021/11/18 00:24:06;;;;;;;454.27;433.23;;;5.30;99.90;;;;;;4396613;32;20244;-61
2021/11/18 00:26:34;;;;;;;456.50;435.27;;;5.20;99.90;;;;;;4393226;32;20182;-61
2021/11/18 00:29:02;;;;;;;432.83;413.23;;;5.20;99.90;;;;;;4394252;32;20522;-60
2021/11/18 00:31:32;;;;;;;455.80;434.57;;;5.20;99.90;;;;;;4398533;32;20599;-61
2021/11/18 00:33:59;;;;;;;435.47;415.07;;;5.20;99.90;;;;;;4408170;32;20175;-62
2021/11/18 00:36:27;;;;;;;454.93;433.93;;;5.20;99.90;;;;;;4409895;32;20160;-61
2021/11/18 00:38:55;;;;;;;452.77;431.53;;;5.20;99.90;;;;;;4408128;32;20163;-61
2021/11/18 00:41:22;;;;;;;452.63;431.93;;;5.20;99.90;;;;;;4407948;32;20195;-61
2021/11/18 00:43:51;;;;;;;446.73;425.60;;;5.20;99.90;;;;;;4409663;32;20482;-61
2021/11/18 00:46:18;;;;;;;453.13;431.13;;;5.20;99.90;;;;;;4404754;32;20502;-61
2021/11/18 00:48:45;;;;;;;447.70;426.77;;;5.20;99.90;;;;;;4393355;32;20176;-61
2021/11/18 00:51:14;;;;;;;451.27;429.57;;;5.30;99.90;;;;;;4394331;32;20520;-60
2021/11/18 00:53:44;;;;;;;458.70;437.13;;;5.40;99.90;;;;;;4392855;32;20163;-61
2021/11/18 00:56:12;;;;;;;463.27;441.47;;;5.30;99.90;;;;;;4392651;32;20477;-61
2021/11/18 00:58:39;;;;;;;464.97;442.13;;;5.40;99.90;;;;;;4394168;32;20171;-61
2021/11/18 01:01:07;;;;;;;450.73;428.60;;;5.40;99.90;;;;;;4394018;32;20491;-61
2021/11/18 01:03:35;;;;;;;463.13;441.53;;;5.50;99.90;;;;;;4392538;32;20279;-60
2021/11/18 01:06:02;;;;;;;457.43;434.90;;;5.50;99.90;;;;;;4393025;32;20206;-61
2021/11/18 01:08:30;;;;;;;453.60;432.70;;;5.50;99.90;;;;;;4394305;32;20172;-60
2021/11/18 01:11:00;;;;;;;477.50;454.47;;;5.60;99.90;;;;;;4394272;32;20227;-61
2021/11/18 01:13:28;;;;;;;451.50;430.00;;;5.60;99.90;;;;;;4393991;32;20190;-61
2021/11/18 01:15:55;;;;;;;470.73;447.53;;;5.50;99.90;;;;;;4392463;32;20186;-61
2021/11/18 01:18:25;;;;;;;458.63;437.37;;;5.60;99.90;;;;;;4392244;32;20571;-61
2021/11/18 01:20:52;;;;;;;453.17;432.13;;;5.60;99.90;;;;;;4393755;32;20518;-61
2021/11/18 01:23:22;;;;;;;445.60;425.17;;;5.60;99.90;;;;;;4394003;32;20207;-61
2021/11/18 01:25:49;;;;;;;448.40;426.83;;;5.60;99.90;;;;;;4393229;32;20581;-60
2021/11/18 01:28:16;;;;;;;450.73;428.83;;;5.50;99.90;;;;;;4409007;32;20167;-61
2021/11/18 01:30:44;;;;;;;455.03;433.87;;;5.50;99.90;;;;;;4409097;32;20158;-60
2021/11/18 01:33:13;;;;;;;444.47;423.37;;;5.60;99.90;;;;;;4407635;32;20145;-62
2021/11/18 01:35:42;;;;;;;444.70;423.97;;;5.50;99.90;;;;;;4392906;32;20570;-59
2021/11/18 01:38:13;;;;;;;438.83;418.70;;;5.40;99.90;;;;;;4393542;32;20152;-61
2021/11/18 01:40:48;;;;;;;452.30;430.97;;;5.50;99.90;;;;;;4393830;32;20561;-60
2021/11/18 01:43:15;;;;;;;442.53;421.53;;;5.40;99.90;;;;;;4393569;32;20253;-61
2021/11/18 01:45:43;;;;;;;454.37;433.50;;;5.40;99.90;;;;;;4387564;32;20584;-61
2021/11/18 01:48:10;;;;;;;434.17;413.80;;;5.40;99.90;;;;;;4391765;32;20152;-61
2021/11/18 01:50:41;;;;;;;445.97;425.13;;;5.30;99.90;;;;;;4391905;32;20200;-61
2021/11/18 01:53:12;;;;;;;445.77;425.30;;;5.40;99.90;;;;;;4392064;32;20153;-61
2021/11/18 01:55:41;;;;;;;451.50;429.83;;;5.40;99.90;;;;;;4393602;32;20580;-61
2021/11/18 01:58:07;;;;;;;448.83;427.47;;;5.40;99.90;;;;;;4393325;32;20182;-61
2021/11/18 02:00:37;;;;;;;431.03;410.77;;;5.40;99.90;;;;;;4393411;32;20567;-62
2021/11/18 02:03:04;;;;;;;456.33;435.37;;;5.40;99.90;;;;;;4403335;32;20156;-61
2021/11/18 02:05:34;;;;;;;444.67;423.60;;;5.50;99.90;;;;;;4408688;32;20166;-60
2021/11/18 02:08:05;;;;;;;476.37;452.97;;;5.50;99.90;;;;;;4408690;32;20640;-61
2021/11/18 02:10:36;;;;;;;458.23;435.57;;;5.70;99.90;;;;;;4408582;32;20248;-61
2021/11/18 02:13:05;;;;;;;484.23;460.30;;;5.80;99.90;;;;;;4408679;32;20175;-61
2021/11/18 02:15:36;;;;;;;476.53;453.30;;;5.90;99.90;;;;;;4406717;32;20159;-62
2021/11/18 02:18:12;;;;;;;460.87;438.23;;;6.00;99.90;;;;;;4406546;32;20186;-62
2021/11/18 02:20:40;;;;;;;475.73;453.37;;;6.00;99.90;;;;;;4408421;32;20189;-62
2021/11/18 02:23:13;;;;;;;460.30;437.90;;;6.10;99.90;;;;;;4406572;32;20194;-61
2021/11/18 02:25:40;;;;;;;462.87;440.27;;;6.20;99.90;;;;;;4406651;32;20584;-61
2021/11/18 02:28:07;;;;;;;469.90;446.53;;;6.30;99.90;;;;;;4406442;32;20168;-61
2021/11/18 02:30:38;;;;;;;469.17;446.27;;;6.30;99.90;;;;;;4396376;32;20202;-62
2021/11/18 02:33:06;;;;;;;473.40;449.53;;;6.40;99.90;;;;;;4391474;32;20213;-61
2021/11/18 02:35:36;;;;;;;472.87;449.93;;;6.40;99.90;;;;;;4392941;32;20200;-61
2021/11/18 02:38:05;;;;;;;485.97;461.43;;;6.50;99.90;;;;;;4391715;32;20159;-61
2021/11/18 02:40:32;;;;;;;490.07;465.23;;;6.60;99.90;;;;;;4392926;32;20568;-61
2021/11/18 02:43:01;;;;;;;469.70;446.73;;;6.60;99.90;;;;;;4392645;32;20640;-61
2021/11/18 02:45:30;;;;;;;484.30;460.43;;;6.60;99.90;;;;;;4402781;32;20190;-61
2021/11/18 02:47:58;;;;;;;489.20;464.93;;;6.70;99.90;;;;;;4406435;32;20172;-60
2021/11/18 02:50:28;;;;;;;497.07;471.47;;;6.70;99.90;;;;;;4406306;32;20176;-61
2021/11/18 02:52:56;;;;;;;474.83;450.97;;;6.80;99.90;;;;;;4392144;32;20526;-61
2021/11/18 02:55:27;;;;;;;490.93;466.63;;;6.80;99.90;;;;;;4391061;32;20193;-60
2021/11/18 02:57:54;;;;;;;476.33;452.83;;;6.90;99.90;;;;;;4390816;32;20160;-61
2021/11/18 03:00:23;;;;;;;479.93;457.03;;;6.90;99.90;;;;;;4394408;32;20722;-61
2021/11/18 03:02:51;;;;;;;481.30;457.63;;;6.90;99.90;;;;;;4401390;32;20205;-60
2021/11/18 03:05:19;;;;;;;482.17;457.80;;;6.90;99.90;;;;;;4393222;32;20194;-60
2021/11/18 03:07:47;;;;;;;473.83;450.90;;;7.00;99.90;;;;;;4390891;32;20255;-60
2021/11/18 03:10:15;;;;;;;485.10;461.70;;;7.00;99.90;;;;;;4391828;32;20187;-61
2021/11/18 03:12:43;;;;;;;498.87;474.37;;;7.00;99.90;;;;;;4391817;32;20200;-61
2021/11/18 03:15:12;;;;;;;494.37;470.70;;;7.00;99.90;;;;;;4395463;32;20223;-60
2021/11/18 03:17:40;;;;;;;471.23;447.37;;;7.00;99.90;;;;;;4406024;32;20170;-61
2021/11/18 03:20:09;;;;;;;482.37;459.03;;;7.10;99.90;;;;;;4406122;32;20216;-61
2021/11/18 03:22:36;;;;;;;484.13;460.13;;;7.10;99.90;;;;;;4403466;32;20188;-61
2021/11/18 03:25:04;;;;;;;487.30;464.07;;;7.10;99.90;;;;;;4407736;32;20556;-62
2021/11/18 03:27:31;;;;;;;496.10;471.57;;;7.20;99.90;;;;;;4405843;32;20212;-60
2021/11/18 03:30:00;;;;;;;480.90;457.40;;;7.20;99.90;;;;;;4405866;32;20174;-61
2021/11/18 03:32:26;;;;;;;501.50;476.67;;;7.20;99.90;;;;;;4405767;32;20163;-60
2021/11/18 03:34:53;;;;;;;494.13;469.40;;;7.30;99.90;;;;;;4395108;32;20212;-61
2021/11/18 03:37:20;;;;;;;500.10;474.50;;;7.30;99.90;;;;;;4391448;32;20191;-61
2021/11/18 03:39:47;;;;;;;493.17;469.17;;;7.30;99.90;;;;;;4390324;32;20157;-61
2021/11/18 03:42:15;;;;;;;480.50;457.00;;;7.30;99.90;;;;;;4390187;32;20184;-61
2021/11/18 03:44:41;;;;;;;497.63;472.87;;;7.40;99.90;;;;;;4390338;32;20208;-61
2021/11/18 03:47:12;;;;;;;494.93;469.47;;;7.40;99.90;;;;;;4375550;32;20541;-61
2021/11/18 03:49:39;;;;;;;489.83;465.17;;;7.50;99.90;;;;;;4385300;32;20168;-61
2021/11/18 03:52:09;;;;;;;507.97;483.27;;;7.50;99.90;;;;;;4392233;32;20152;-61
2021/11/18 03:54:37;;;;;;;481.13;457.17;;;7.50;99.90;;;;;;4390397;32;20207;-61
2021/11/18 03:57:05;;;;;;;483.40;458.87;;;7.50;99.90;;;;;;4391224;32;20187;-61
2021/11/18 03:59:34;;;;;;;491.90;467.27;;;7.50;99.90;;;;;;4391506;32;20187;-60
2021/11/18 04:02:02;;;;;;;492.40;467.93;;;7.60;99.90;;;;;;4390030;32;20169;-60
2021/11/18 04:04:33;;;;;;;498.57;473.57;;;7.50;99.90;;;;;;4390447;32;20160;-61
2021/11/18 04:07:00;;;;;;;489.67;464.80;;;7.50;99.90;;;;;;4390097;32;20171;-61
2021/11/18 04:09:26;;;;;;;510.53;484.07;;;7.60;99.90;;;;;;4390051;32;20542;-62
2021/11/18 04:11:59;;;;;;;515.43;488.60;;;7.60;99.90;;;;;;4390338;32;20179;-61
2021/11/18 04:14:27;;;;;;;491.07;465.93;;;7.60;99.90;;;;;;4391990;32;20175;-61
2021/11/18 04:16:55;;;;;;;497.87;472.10;;;7.60;99.90;;;;;;4396356;32;20227;-61
2021/11/18 04:19:22;;;;;;;508.93;482.60;;;7.60;99.90;;;;;;4405546;32;20208;-62
2021/11/18 04:21:52;;;;;;;500.40;475.17;;;7.60;99.90;;;;;;4405330;32;20211;-61
2021/11/18 04:24:22;;;;;;;513.03;487.00;;;7.60;99.90;;;;;;4407042;32;20212;-61
2021/11/18 04:26:50;;;;;;;503.23;478.57;;;7.50;99.90;;;;;;4407122;32;20163;-61
2021/11/18 04:29:27;;;;;;;510.63;484.93;;;7.50;99.90;;;;;;4405567;32;20239;-60
2021/11/18 04:31:54;;;;;;;488.97;464.63;;;7.60;99.90;;;;;;4390646;32;20169;-61
2021/11/18 04:34:23;;;;;;;510.10;484.50;;;7.40;99.90;;;;;;4390195;32;20203;-61
2021/11/18 04:36:51;;;;;;;502.70;477.53;;;7.40;99.90;;;;;;4391341;32;20211;-61
2021/11/18 04:39:18;;;;;;;505.13;479.60;;;7.40;99.90;;;;;;4390046;32;20231;-61
2021/11/18 04:41:48;;;;;;;500.43;474.63;;;7.30;99.90;;;;;;4391568;32;20612;-60
2021/11/18 04:44:15;;;;;;;496.27;470.53;;;7.30;99.90;;;;;;4327282;32;1737496;-61
2021/11/18 04:46:42;;;;;;;494.00;468.53;;;7.40;99.90;;;;;;4375657;32;20170;-61
2021/11/18 04:49:09;;;;;;;488.83;465.27;;;7.40;99.90;;;;;;4378697;32;20235;-61
2021/11/18 04:51:36;;;;;;;502.93;477.63;;;7.30;99.90;;;;;;4390020;32;20148;-61
2021/11/18 04:54:04;;;;;;;486.40;462.13;;;7.30;99.90;;;;;;4391940;32;20167;-61
2021/11/18 04:56:33;;;;;;;482.20;457.37;;;7.30;99.90;;;;;;4392652;32;20190;-61
2021/11/18 04:59:00;;;;;;;499.37;473.53;;;7.30;99.90;;;;;;4392926;32;20529;-61
2021/11/18 05:01:27;;;;;;;495.33;470.70;;;7.20;99.90;;;;;;4394489;32;20208;-61
2021/11/18 05:03:55;;;;;;;505.87;480.43;;;7.20;99.90;;;;;;4391074;32;20531;-60
2021/11/18 05:06:22;;;;;;;498.17;473.13;;;7.20;99.90;;;;;;4380689;32;20275;-61
2021/11/18 05:08:50;;;;;;;513.20;487.70;;;7.30;99.90;;;;;;4392681;32;20164;-61
2021/11/18 05:11:19;;;;;;;513.20;486.70;;;7.40;99.90;;;;;;4394181;32;20173;-61
2021/11/18 05:13:48;;;;;;;526.30;498.90;;;7.50;99.90;;;;;;4393154;32;20182;-60
2021/11/18 05:16:17;;;;;;;510.23;484.67;;;7.50;99.90;;;;;;4394192;32;20569;-61
2021/11/18 05:18:45;;;;;;;512.17;486.07;;;7.50;99.90;;;;;;4394071;32;20164;-61
2021/11/18 05:21:13;;;;;;;521.70;495.27;;;7.50;99.90;;;;;;4392035;32;20183;-62
2021/11/18 05:23:41;;;;;;;521.03;494.33;;;7.60;99.90;;;;;;4392457;32;20207;-61
2021/11/18 05:26:11;;;;;;;534.37;507.23;;;7.60;99.90;;;;;;4393050;32;20208;-61
2021/11/18 05:28:39;;;;;;;515.43;489.07;;;7.70;99.90;;;;;;4393826;32;20204;-61
2021/11/18 05:31:06;;;;;;;517.17;491.40;;;7.70;99.90;;;;;;4407441;32;20153;-61
2021/11/18 05:33:34;;;;;;;524.77;497.73;;;7.70;99.90;;;;;;4396378;32;20227;-60
2021/11/18 05:36:01;;;;;;;524.93;497.77;;;7.80;99.90;;;;;;4392330;32;20149;-61
2021/11/18 05:38:29;;;;;;;518.43;492.40;;;7.80;99.90;;;;;;4393432;32;20172;-61
2021/11/18 05:40:56;;;;;;;530.07;502.87;;;7.80;99.90;;;;;;4393805;32;20611;-60
2021/11/18 05:43:26;;;;;;;530.83;503.70;;;7.90;99.90;;;;;;4393231;32;20535;-62
2021/11/18 05:45:55;;;;;;;536.77;508.77;;;7.90;99.90;;;;;;4392183;32;20182;-61
2021/11/18 05:48:22;;;;;;;526.00;499.37;;;7.90;99.90;;;;;;4402041;32;20162;-61
2021/11/18 05:50:52;;;;;;;519.57;492.57;;;7.90;99.90;;;;;;4407998;32;20199;-61
2021/11/18 05:53:20;;;;;;;538.43;510.50;;;7.90;99.90;;;;;;4407672;32;20178;-62
2021/11/18 05:55:48;;;;;;;525.10;498.40;;;7.90;99.90;;;;;;4406567;32;20213;-62
2021/11/18 05:58:19;;;;;;;526.50;498.67;;;8.00;99.90;;;;;;4407126;32;20157;-62
2021/11/18 06:00:46;;;;;;;526.23;499.70;;;8.00;99.90;;;;;;4402888;32;20538;-62
2021/11/18 06:03:14;;;;;;;521.10;494.20;;;8.10;99.90;;;;;;4389547;32;20227;-61
2021/11/18 06:05:41;;;;;;;542.43;514.63;;;8.10;99.90;;;;;;4378374;32;20179;-62
2021/11/18 06:08:08;;;;;;;517.47;491.53;;;8.10;99.90;;;;;;4390587;32;20207;-62
2021/11/18 06:10:36;;;;;;;522.10;494.50;;;8.10;99.90;;;;;;4404143;32;20151;-63
2021/11/18 06:13:05;;;;;;;512.63;485.30;;;8.10;99.90;;;;;;4391831;32;20193;-61
2021/11/18 06:15:33;;;;;;;535.47;507.53;;;8.10;99.90;;;;;;4390304;32;20204;-62
2021/11/18 06:18:00;;;;;;;534.43;507.60;;;8.20;99.90;;;;;;4389348;32;20648;-61
2021/11/18 06:20:29;;;;;;;534.87;506.87;;;8.20;99.90;;;;;;4389515;32;20180;-61
2021/11/18 06:22:57;;;;;;;546.67;517.53;;;8.20;99.90;;;;;;4390391;32;20215;-62
2021/11/18 06:25:27;;;;;;;527.30;499.97;;;8.20;99.90;;;;;;4385718;32;20539;-62
2021/11/18 06:27:54;;;;;;;516.83;490.03;;;8.20;99.90;;;;;;4382027;32;20204;-62
2021/11/18 06:30:23;;;;;;;528.73;500.97;;;8.10;99.90;;;;;;4387975;32;20178;-63
2021/11/18 06:32:50;;;;;;;512.23;484.27;;;8.00;99.90;;;;;;4384689;32;20222;-62
2021/11/18 06:35:20;;;;;;;512.13;485.50;;;7.90;99.90;;;;;;4390555;32;20216;-61
2021/11/18 06:37:49;;;;;;;535.87;507.97;;;7.80;99.90;;;;;;4388665;32;20179;-61
2021/11/18 06:40:18;;;;;;;508.77;483.13;;;7.70;99.90;;;;;;4389903;32;20153;-61
2021/11/18 06:42:47;;;;;;;508.70;482.70;;;7.70;99.90;;;;;;4388846;32;20172;-62
2021/11/18 06:45:17;;;;;;;536.63;509.23;;;7.60;99.90;;;;;;4389943;32;20177;-62
2021/11/18 06:47:43;;;;;;;515.67;489.00;;;7.60;99.90;;;;;;4389073;32;20178;-61
2021/11/18 06:50:11;;;;;;;540.10;511.97;;;7.60;99.90;;;;;;4389647;32;20216;-61
2021/11/18 06:52:42;;;;;;;526.77;499.80;;;7.60;99.90;;;;;;4388391;32;20588;-61
2021/11/18 06:55:12;;;;;;;517.23;489.73;;;7.60;99.90;;;;;;4388593;32;20447;-61
2021/11/18 06:57:39;;;;;;;533.47;504.43;;;7.50;99.90;;;;;;4386643;32;20228;-61
2021/11/18 07:00:09;;;;;;;543.40;514.93;;;7.50;99.90;;;;;;4389093;32;20213;-61
2021/11/18 07:02:36;;;;;;;530.87;503.67;;;7.60;99.90;;;;;;4388456;32;20635;-61
2021/11/18 07:05:04;;;;;;;528.53;501.30;;;7.60;99.90;;;;;;4388211;32;20212;-62
2021/11/18 07:07:31;;;;;;;528.13;500.70;;;7.50;99.90;;;;;;4389617;32;20212;-61
2021/11/18 07:10:01;;;;;;;544.93;516.27;;;7.50;99.90;;;;;;4389263;32;20637;-60
2021/11/18 07:12:30;;;;;;;533.23;505.37;;;7.50;99.90;;;;;;4388226;32;20580;-62
2021/11/18 07:14:58;;;;;;;524.47;496.10;;;7.50;99.90;;;;;;4387209;32;20171;-64
2021/11/18 07:17:26;;;;;;;505.60;479.30;;;7.50;99.90;;;;;;4391156;32;20183;-61
2021/11/18 07:19:53;;;;;;;507.73;480.13;;;7.50;99.90;;;;;;4390672;32;20212;-61
2021/11/18 07:22:20;;;;;;;531.70;503.43;;;7.50;99.90;;;;;;4389093;32;20203;-60
2021/11/18 07:24:47;;;;;;;526.30;498.67;;;7.50;99.90;;;;;;4390503;32;20219;-63
2021/11/18 07:27:14;;;;;;;541.50;513.07;;;7.60;99.90;;;;;;4390079;32;20165;-64
2021/11/18 07:29:42;;;;;;;539.93;511.40;;;7.70;99.90;;;;;;4389953;32;20536;-61
2021/11/18 07:32:09;;;;;;;525.37;497.37;;;7.70;99.90;;;;;;4391253;32;20175;-61
2021/11/18 07:34:36;;;;;;;529.57;501.97;;;7.80;99.90;;;;;;4388979;32;20177;-60
2021/11/18 07:37:03;;;;;;;537.73;509.23;;;7.90;99.90;;;;;;4389505;32;20174;-62
2021/11/18 07:39:30;;;;;;;537.30;509.47;;;7.90;99.90;;;;;;4388553;32;20210;-61
2021/11/18 07:41:57;;;;;;;546.40;518.37;;;7.90;99.90;;;;;;4393600;32;20227;-60
2021/11/18 07:44:24;;;;;;;525.10;497.80;;;7.90;99.90;;;;;;4389597;32;20588;-60
2021/11/18 07:46:52;;;;;;;521.37;494.47;;;7.90;99.90;;;;;;4391057;32;20497;-61
2021/11/18 07:49:19;;;;;;;526.67;499.27;;;7.90;99.90;;;;;;4387727;32;20156;-61
2021/11/18 07:51:47;;;;;;;524.23;497.57;;;7.90;99.90;;;;;;4391033;32;20591;-60
2021/11/18 07:54:16;;;;;;;530.43;503.30;;;7.90;99.90;;;;;;4388853;32;20162;-60
2021/11/18 07:56:44;;;;;;;514.53;487.47;;;7.90;99.90;;;;;;4388427;32;20220;-60
2021/11/18 07:59:11;;;;;;;537.67;508.23;;;7.90;99.90;;;;;;4381520;32;20235;-59
2021/11/18 08:01:40;;;;;;;520.70;494.80;;;7.80;99.90;;;;;;4384823;32;20160;-61
2021/11/18 08:04:08;;;;;;;529.57;500.53;;;7.90;99.90;;;;;;4389693;32;20267;-61
2021/11/18 08:06:35;;;;;;;534.60;506.87;;;7.90;99.90;;;;;;4376849;32;20160;-60
2021/11/18 08:09:03;;;;;;;536.80;508.40;;;8.00;99.90;;;;;;4389988;32;20611;-60
2021/11/18 08:11:32;;;;;;;538.57;510.40;;;8.00;99.90;;;;;;4383313;32;20523;-60
2021/11/18 08:14:00;;;;;;;528.00;500.03;;;8.00;99.90;;;;;;4389529;32;20198;-61
2021/11/18 08:16:28;;;;;;;526.50;499.07;;;8.00;99.90;;;;;;4386844;32;20224;-60
2021/11/18 08:18:55;;;;;;;535.50;508.30;;;8.00;99.90;;;;;;4387039;32;20500;-60
2021/11/18 08:21:24;;;;;;;509.73;483.33;;;8.10;99.90;;;;;;4389758;32;20217;-61
2021/11/18 08:23:51;;;;;;;524.67;497.00;;;8.10;99.90;;;;;;4389802;32;20201;-60
2021/11/18 08:26:19;;;;;;;520.97;493.67;;;8.10;99.90;;;;;;4377602;32;20193;-60
2021/11/18 08:28:46;;;;;;;513.80;486.83;;;8.10;99.90;;;;;;4398256;32;20161;-61
2021/11/18 08:31:14;;;;;;;510.80;484.67;;;8.10;99.90;;;;;;4392231;32;20157;-61
2021/11/18 08:33:42;;;;;;;534.13;507.23;;;8.20;99.90;;;;;;4392472;32;20165;-61
2021/11/18 08:36:09;;;;;;;537.27;509.23;;;8.20;99.90;;;;;;4392065;32;20180;-61
2021/11/18 08:38:37;;;;;;;531.33;504.03;;;8.30;99.90;;;;;;4388338;32;20247;-60
2021/11/18 08:41:08;;;;;;;523.03;495.10;;;8.30;99.90;;;;;;4393926;32;20524;-61
2021/11/18 08:43:37;;;;;;;530.57;502.83;;;8.30;99.90;;;;;;4392075;32;20180;-61
2021/11/18 08:46:08;;;;;;;527.47;499.97;;;8.40;99.90;;;;;;4393376;32;20223;-61
2021/11/18 08:48:36;;;;;;;491.57;466.80;;;8.50;99.90;;;;;;4392160;32;20173;-61
2021/11/18 08:51:03;;;;;;;509.17;483.33;;;8.50;99.90;;;;;;4391733;32;20191;-61
2021/11/18 08:53:33;;;;;;;524.53;497.17;;;8.50;99.90;;;;;;4393407;32;20211;-61
2021/11/18 08:56:03;;;;;;;519.17;492.83;;;8.50;99.90;;;;;;4391068;32;20244;-61
2021/11/18 08:58:34;;;;;;;536.27;509.07;;;8.50;99.90;;;;;;4389804;32;20188;-61
2021/11/18 09:01:04;;;;;;;515.47;488.67;;;8.60;99.90;;;;;;4392638;32;20245;-61
2021/11/18 09:03:33;;;;;;;506.93;481.10;;;8.60;99.90;;;;;;4390605;32;20610;-61
2021/11/18 09:06:02;;;;;;;523.40;496.63;;;8.70;99.90;;;;;;4391672;32;20534;-59
2021/11/18 09:08:30;;;;;;;520.03;493.37;;;8.70;99.90;;;;;;4391613;32;20160;-61
2021/11/18 09:10:58;;;;;;;516.43;489.43;;;8.70;99.90;;;;;;4391729;32;20198;-61
2021/11/18 09:13:26;;;;;;;531.27;503.23;;;8.80;99.90;;;;;;4391541;32;20228;-60
2021/11/18 09:15:54;;;;;;;526.40;499.27;;;8.80;99.90;;;;;;4388618;32;20615;-61
2021/11/18 09:18:21;;;;;;;523.90;497.27;;;8.90;99.90;;;;;;4394199;32;20166;-61
2021/11/18 09:20:51;;;;;;;538.87;511.53;;;9.00;99.90;;;;;;4391366;32;20175;-61
2021/11/18 09:23:21;;;;;;;528.37;500.97;;;9.10;99.90;;;;;;4393975;32;20242;-61
2021/11/18 09:25:51;;;;;;;534.00;505.90;;;9.20;99.90;;;;;;4394033;32;20601;-61
2021/11/18 09:28:20;;;;;;;529.23;502.07;;;9.20;99.90;;;;;;4392361;32;20219;-61
2021/11/18 09:30:51;;;;;;;546.97;517.37;;;9.30;99.90;;;;;;4392984;32;20170;-60
2021/11/18 09:33:18;;;;;;;519.93;493.00;;;9.40;99.90;;;;;;4392189;32;20198;-61
2021/11/18 09:35:48;;;;;;;539.93;512.13;;;9.40;99.90;;;;;;4392604;32;20148;-60
2021/11/18 09:38:18;;;;;;;529.47;501.63;;;9.40;99.90;;;;;;4391886;32;20150;-61
2021/11/18 09:40:51;;;;;;;522.50;494.97;;;9.50;99.90;;;;;;4386387;32;20172;-60
2021/11/18 09:44:05;;;;;;;532.23;504.47;;;9.50;99.90;;;;;;4392216;32;20226;-60
2021/11/18 09:47:05;;;;;;;502.40;477.10;;;9.40;99.90;;;;;;4392035;32;20162;-61
2021/11/18 09:49:58;;;;;;;532.00;503.93;;;9.30;99.90;;;;;;4392449;32;20215;-60
2021/11/18 09:52:32;;;;;;;493.80;468.57;;;9.40;99.90;;;;;;4393721;32;20170;-61
2021/11/18 09:55:07;;;;;;;506.67;480.33;;;9.40;99.90;;;;;;4392401;32;20491;-60
2021/11/18 09:57:54;;;;;;;531.40;504.37;;;9.50;99.90;;;;;;4391959;32;20189;-60
2021/11/18 10:00:31;;;;;;;527.37;499.53;;;9.50;99.90;;;;;;4391853;32;20191;-60
2021/11/18 10:03:18;;;;;;;533.17;505.40;;;9.60;99.90;;;;;;4393325;32;20184;-60
2021/11/18 10:06:01;;;;;;;530.47;503.07;;;9.70;99.90;;;;;;4392414;32;20582;-60
2021/11/18 10:08:32;;;;;;;544.03;515.50;;;9.70;99.90;;;;;;4391727;32;20160;-60
2021/11/18 10:11:14;;;;;;;538.17;510.60;;;9.80;99.90;;;;;;4391839;32;20174;-60
2021/11/18 10:14:04;;;;;;;537.63;509.77;;;9.80;99.90;;;;;;4392178;32;20642;-60
2021/11/18 10:16:38;;;;;;;520.33;493.97;;;9.90;99.90;;;;;;4391624;32;20200;-60
2021/11/18 10:19:08;;;;;;;525.70;498.10;;;9.90;99.90;;;;;;4392703;32;20582;-60
2021/11/18 10:21:39;;;;;;;547.90;519.17;;;9.90;99.90;;;;;;4391536;32;20186;-60
2021/11/18 10:24:11;;;;;;;552.93;524.37;;;10.00;99.90;;;;;;4391561;32;20162;-60
2021/11/18 10:26:42;;;;;;;537.97;510.80;;;10.00;99.90;;;;;;4393185;32;20215;-60
2021/11/18 10:29:13;;;;;;;555.23;524.87;;;10.00;99.90;;;;;;4393168;32;20183;-60
2021/11/18 10:31:49;;;;;;;541.37;513.23;;;10.10;99.90;;;;;;4391487;32;20154;-60
2021/11/18 10:34:22;;;;;;;542.07;514.17;;;10.10;99.90;;;;;;4392095;32;20161;-60
2021/11/18 10:37:14;;;;;;;554.40;524.40;;;10.10;99.90;;;;;;4391363;32;20184;-60
2021/11/18 10:39:50;;;;;;;556.37;527.90;;;10.10;99.90;;;;;;4345629;33;20224;-60
2021/11/18 10:42:31;;;;;;;560.20;530.60;;;10.10;99.90;;;;;;4343618;33;20178;-61
2021/11/18 10:45:01;;;;;;;558.63;528.77;;;10.20;99.90;;;;;;4345966;33;20739;-61
2021/11/18 10:47:31;;;;;;;594.10;562.40;;;10.20;99.90;;;;;;4345088;33;20164;-61
2021/11/18 10:50:27;;;;;;;571.17;540.77;;;10.30;99.90;;;;;;4344087;33;20628;-61
2021/11/18 10:53:06;;;;;;;554.97;526.30;;;10.30;99.90;;;;;;4346035;33;20232;-61
2021/11/18 10:55:37;;;;;;;566.13;536.27;;;10.30;99.90;;;;;;4345087;33;20234;-61
2021/11/18 10:58:07;;;;;;;569.50;539.13;;;10.40;99.90;;;;;;4344189;33;20167;-61
2021/11/18 11:00:45;;;;;;;578.53;547.63;;;10.40;99.90;;;;;;4344119;33;20178;-61
2021/11/18 11:03:24;;;;;;;565.90;535.50;;;10.40;99.90;;;;;;4344057;33;20246;-61
2021/11/18 11:06:15;;;;;;;568.40;538.50;;;10.40;99.90;;;;;;4345626;33;20624;-61
2021/11/18 11:08:44;;;;;;;555.33;526.10;;;10.50;99.90;;;;;;4345635;33;20169;-61
2021/11/18 11:11:24;;;;;;;572.03;541.30;;;10.50;99.90;;;;;;4345598;33;20199;-61
2021/11/18 11:14:23;;;;;;;541.43;512.57;;;10.60;99.90;;;;;;4345709;33;20152;-61
2021/11/18 11:17:16;;;;;;;541.53;513.47;;;10.60;99.90;;;;;;4361709;32;20332;-61
2021/11/18 11:19:47;;;;;;;557.83;528.83;;;10.60;99.90;;;;;;4375705;32;20156;-61
2021/11/18 11:22:21;;;;;;;573.83;542.80;;;10.60;99.90;;;;;;4377072;32;20214;-61
2021/11/18 11:25:18;;;;;;;538.07;510.00;;;10.70;99.90;;;;;;4375670;32;20182;-61
2021/11/18 11:28:20;;;;;;;548.13;519.07;;;10.70;99.90;;;;;;4373685;32;20182;-61
2021/11/18 11:30:54;;;;;;;547.50;518.97;;;10.70;99.90;;;;;;4344575;33;20660;-61
2021/11/18 11:33:27;;;;;;;557.63;528.27;;;10.70;99.90;;;;;;4344480;33;20184;-61
2021/11/18 11:35:59;;;;;;;583.23;552.30;;;10.70;99.90;;;;;;4345388;33;20200;-60
2021/11/18 11:38:58;;;;;;;568.83;538.20;;;10.70;99.90;;;;;;4345395;33;20176;-61
2021/11/18 11:42:02;;;;;;;568.23;538.30;;;10.80;99.90;;;;;;4301324;33;20218;-61
2021/11/18 11:44:40;;;;;;;535.73;507.23;;;10.90;99.90;;;;;;4299800;33;20180;-61
2021/11/18 11:47:16;;;;;;;550.60;521.80;;;10.90;99.90;;;;;;4300142;33;20190;-61
2021/11/18 11:49:53;;;;;;;561.90;532.23;;;10.90;99.90;;;;;;4300796;33;20233;-62
2021/11/18 11:52:42;;;;;;;542.93;514.87;;;11.10;99.90;;;;;;4299843;33;20169;-62
2021/11/18 11:55:39;;;;;;;543.60;514.93;;;11.30;99.90;;;;;;4299825;33;20177;-61
2021/11/18 11:58:12;;;;;;;528.70;501.83;;;11.50;99.90;;;;;;4282286;33;20225;-61
2021/11/18 12:00:54;;;;;;;517.17;489.73;;;11.60;99.90;;;;;;4285788;33;20222;-62
2021/11/18 12:03:36;;;;;;;531.93;504.30;;;11.70;99.90;;;;;;4287897;33;20185;-61
2021/11/18 12:06:14;;;;;;;537.17;510.07;;;11.80;99.90;;;;;;4288729;33;20225;-62
2021/11/18 12:08:48;;;;;;;520.00;492.83;;;11.70;99.90;;;;;;4318409;33;20200;-61
2021/11/18 12:11:19;;;;;;;552.07;523.97;;;11.70;99.90;;;;;;4317053;33;20164;-61
2021/11/18 12:13:52;;;;;;;556.47;527.57;;;11.60;99.90;;;;;;4318692;33;20660;-62
2021/11/18 12:16:25;;;;;;;545.10;517.37;;;11.60;99.90;;;;;;4307107;33;20188;-62
2021/11/18 12:18:55;;;;;;;528.37;501.57;;;11.70;99.90;;;;;;4321040;33;20204;-62
2021/11/18 12:21:23;;;;;;;529.30;502.80;;;11.70;99.90;;;;;;4331820;33;20184;-62
2021/11/18 12:24:08;;;;;;;526.53;499.63;;;11.70;99.90;;;;;;4332724;33;20493;-62
2021/11/18 12:26:57;;;;;;;526.80;498.73;;;11.50;99.90;;;;;;4333295;33;20211;-62
2021/11/18 12:29:43;;;;;;;503.10;476.97;;;11.50;99.90;;;;;;4331675;33;20177;-61
2021/11/18 12:32:36;;;;;;;527.20;499.53;;;11.50;99.90;;;;;;4331808;33;20157;-62
2021/11/18 12:35:14;;;;;;;543.40;516.07;;;11.50;99.90;;;;;;4345068;33;20202;-62